Les relevés climatiques à Durbuy, CO2, particules fines, pluies, températures et pression atmosphérique.... - Le pays de Durbuy ASBL
Partageons !

Merci à Marc pour ce travail titanesque

 

Tourisme Date CO2B CO2J CO2M Hum Temp Press Pluie PM10 PM25
20/12/23 409 70,88 % 12,39° 995mb
21/12/23 404 81,47 % 9,25° 987mb
Tourisme 22/12/23 394 75,99 % 7,33° 985mb
Tourisme 23/12/23 399 91,36 % 6,51° 994mb
Tourisme 24/12/23 413 87,03 % 6,44° 1006mb
25/12/23
26/12/23
Tourisme 27/12/23 422 84,30 % 4,38° 1017mb
Tourisme 28/12/23 433 90,42 % 5,84° 1025mb
Tourisme 29/12/23 436 77,70 % 2,95° 1033mb
Tourisme 30/12/23 432 61,34 % 2,75° 1030mb
Tourisme 31/12/23 442 59,14 % 2,93° 1025mb
Tourisme 01/01/24 445 76,85 % 3,37° 1028mb
Tourisme 02/01/24 424 81,96 % 1,88° 1026mb
Tourisme 03/01/24 425 81,25 % 3,52° 1018mb
Tourisme 04/01/24 417 91,30 % 6,35° 1015mb
Tourisme 05/01/24 424 95,00 % 3,84° 1027mb
Tourisme 06/01/24 387 387 71,50 % 5,80° 1000mb
07/01/24 396 396 66,00 % 4,25° 1000mb
08/01/24 394 394 87,00 % 5,70° 1000mb
09/01/24 398 398 91,50 % 5,90° 1000mb
10/01/24 388 388 89,50 % 10,50° 1000mb
11/01/24 384 384 87,00 % 7,25° 1000mb
12/01/24 393 393 78,00 % 4,52° 1000mb
13/01/24 389 389 81,50 % 5,00° 1000mb
14/01/24 382 382 82,00 % 7,50° 1000mb
15/01/24 398 398 76,52 % 8,54° 1000mb
16/01/24 408 408 82,00 % 4,03° 1000mb
17/01/24 415 415 70,00 % 4,45° 1000mb
18/01/24 408 408 81,50 % 6,30° 1000mb
19/01/24 414 414 80,63 % 3,63° 1000mb
20/01/24 429 429 88,00 % 2,20° 1000mb
21/01/24 430 430 86,00 % 2,85° 1000mb
22/01/24 447 447 70,00 % -3,00° 1000mb
23/01/24 454 454 69,50 % -1,10° 1000mb
24/01/24 425 425 0,00 % -0,00° 1000mb
25/01/24 434 434 84,00 % 1,25° 1000mb
26/01/24 427 427 84,17 % 2,00° 1000mb
27/01/24 412 412 73,73 % 6,91° 1000mb
28/01/24 396 396 92,00 % 6,85° 1000mb
29/01/24 388 388 86,19 % 4,14° 1000mb
30/01/24 394 394 80,00 % 5,50° 1000mb
31/01/24 399 399 88,50 % 9,10° 1000mb
01/02/24 400 400 83,50 % 11,00° 1000mb
02/02/24 399 399 88,82 % 8,91° 1000mb
03/02/24 410 404 404 72,08 13,61 1000mb
04/02/24 405 404 404 76,41 11,63 1000mb
05/02/24 404 404 404 74,76 8,79 1000mb
06/02/24 431 422 422 71,93 8,99 1000mb
07/02/24 455 428 428 64,22 9,67 1000mb
08/02/24 456 418 418 48,78 14,77 1000mb
09/02/24 432 410 410 59,11 10,54 0mb
10/02/24 417 397 397 72,75 9,54 0mb
11/02/24 402 402 0,00 % -0,00° 0mb
12/02/24 394 394 0,00 % -0,00° 0mb
13/02/24 432 401 401 62,81 9,53 0mb
14/02/24 422 394 394 69,26 8,6 0mb
Tourisme 15/02/24 426 407 407 71,39 9,49 0mb
16/02/24 429 401 401 61,65 12,86 0mb
17/02/24 417 404 404 61,97 15,16 0mb
18/02/24 424 403 403 58,54 13,83 0mb
19/02/24 416 406 406 59,02 11,73 0mb
20/02/24 406 405 405 63,07 11,56 0mb
21/02/24 402 404 404 69,48 10,1 0mb
22/02/24 417 408 408 59,59 11,48 0mb
23/02/24 408 406 406 66,04 8,93 0mb
24/02/24 409 429 429 77,51 11,75 0mb
25/02/24 421 406 406 76,93 10,7 0mb
26/02/24 414 399 399 65,72 13,08 0mb
27/02/24 413 402 402 67,61 8,39 0mb
28/02/24 411 400 400 74 5,85 0mb
29/02/24 421 404 404 61,39 10 0mb
01/03/24 403 390 390 63,11 12,54 0mb
02/03/24 403 397 397 59,15 11,62 0mb
03/03/24 398 399 399 68,47 9,77 0mb
04/03/24 408 400 400 60,96 11,09 0mb
05/03/24 413 404 404 63,61 10,87 0mb
06/03/24 403 396 396 69,59 9,83 0mb
07/03/24 411 401 401 75,63 9,33 0mb
08/03/24 415 412 412 58,13 12,95 0mb
09/03/24 409 401 401 60,1 12,07 0mb
10/03/24 423 413 413 61,91 13,08 0mb
11/03/24 412 423 423 77,76 11,7 0mb
12/03/24 418 427 427 74 15,85 0mb
13/03/24 422 422 422 54,2 17,64 0mb
14/03/24 421 432 432 59,52 11,93 0mb
15/03/24 435 442 442 59,8 10,84 0mb
Confinement 16/03/24 415 436 436 53,39 15,7 0mb
Confinement 17/03/24 458 466 466 45,78 19,51 0mb
Confinement 18/03/24 456 463 463 44,63 19,01 0mb
Confinement 19/03/24 483 464 464 46,78 17,95 0mb
Confinement 20/03/24 481 471 471 56,13 15,58 0mb
Confinement 21/03/24 458 457 457 65,43 12,59 0mb
Confinement 22/03/24 410 432 432 61,5 9,83 0mb
Confinement 23/03/24 399 434 434 39,67 12,65 0mb
Confinement 24/03/24 404 434 434 25,39 17,21 0mb
Confinement 25/03/24 404 418 418 22,07 17,26 0mb
Confinement 26/03/24 406 397 397 21,17 18,26 0mb
Confinement 27/03/24 412 401 401 25,61 16,92 0mb
Confinement 28/03/24 433 412 412 31,8 17,73 0mb
Confinement 29/03/24 466 421 421 35,98 17,91 0mb
Confinement 30/03/24 405 402 402 43,33 11,58 0mb
Confinement 31/03/24 415 410 410 33,07 14,97 0mb
Confinement 01/04/24 418 407 407 34,93 16,47 0mb
Confinement 02/04/24 450 420 420 30,59 16,81 0mb
Confinement 03/04/24 439 414 414 36,87 12,62 0mb
Confinement 04/04/24 404 417 417 45,22 12,51 0mb
Confinement 05/04/24 432 452 452 37,67 16,88 0mb
Confinement 06/04/24 438 418 418 31,25 20,07 0mb
Confinement 07/04/24 408 418 418 28,07 22,91 0mb
Confinement 08/04/24 469 430 430 37,3 23,88 0mb
Confinement 09/04/24 473 417 417 36,04 24,08 0mb
Confinement 10/04/24 495 427 427 35 24,72 0mb
Confinement 11/04/24 479 422 422 35,83 24,11 0mb
Confinement 12/04/24 463 420 420 35,13 23,9 0mb
Confinement 13/04/24 500 407 407 36,23 22,68 0mb
Confinement 14/04/24 435 394 394 44,22 16,06 0mb
Confinement 15/04/24 417 393 393 37,09 14,85 0mb
Confinement 16/04/24 428 397 397 47,17 11,53 0mb
Confinement 17/04/24 440 402 402 45,43 16,06 0mb
Confinement 18/04/24 466 414 414 51,5 18,4 0mb
Confinement 19/04/24 458 411 411 67,37 14,96 0mb
Confinement 20/04/24 432 406 406 69,36 14,61 0mb
Confinement 21/04/24 408 397 397 41,63 15,36 0mb
Confinement 22/04/24 404 398 398 32,8 17,04 0mb
Confinement 23/04/24 411 398 398 33,04 18,72 0mb
Confinement 24/04/24 436 413 413 39,04 18,91 0mb
Confinement 25/04/24 441 417 417 47,15 16,53 0mb
Confinement 26/04/24 416 407 407 53,26 13 0mb
Confinement 27/04/24 438 413 413 47,51 14,89 0mb
Confinement 28/04/24 446 407 407 48,02 16,26 0mb
Confinement 29/04/24 429 401 401 68,63 14,66 0mb
Confinement 30/04/24 403 392 392 69,33 14,07 0mb
Confinement 01/05/24 407 390 390 80,65 11,14 0mb
Confinement 02/05/24 406 387 387 80,67 10,59 0mb
Confinement 03/05/24 413 398 398 77,04 10,9 0mb
Confinement 04/05/24 468 410 410 69,97 10,75 0mb
Confinement 05/05/24 461 404 404 70,76 13,99 0mb
Confinement 06/05/24 429 402 402 57,41 13,03 0mb
Confinement 07/05/24 447 419 419 45,41 14,86 0mb
Confinement 08/05/24 459 423 423 44,54 17,33 0mb
Confinement 09/05/24 465 427 427 45,22 19,79 0mb
Confinement 10/05/24 474 430 430 51,7 20,65 0mb
Confinement 11/05/24 440 410 410 69,17 18,53 0mb
Confinement 12/05/24 406 403 403 52,87 11,01 0mb
Confinement 13/05/24 426 420 420 44,59 11,98 0mb
Confinement 14/05/24 436 420 420 47,15 13 0mb
Confinement 15/05/24 414 418 418 44,24 13,08 0mb
Confinement 16/05/24 420 422 422 40,67 14,63 0mb
Confinement 17/05/24 440 420 420 45 14,64 0mb
Confinement 18/05/24 445 426 426 44,61 16,67 0mb
Confinement 19/05/24 451 427 427 47,15 18,22 0mb
Confinement 20/05/24 441 428 428 47,15 19,72 0mb
Confinement 21/05/24 442 425 425 49,67 21,95 0mb
Confinement 22/05/24 455 420 420 47,72 23,88 0mb
Confinement 23/05/24 460 432 432 63,28 20,13 0mb
Confinement 24/05/24 417 412 412 63,48 15,5 0mb
Confinement 25/05/24 413 408 408 61,78 14,9 0mb
Confinement 26/05/24 434 446 446 57,54 19,18 0mb
Confinement 27/05/24 458 414 414 49,22 19,82 0mb
Confinement 28/05/24 455 404 404 46,61 20,82 0mb
Confinement 29/05/24 417 401 401 42,61 20,49 0mb
Confinement 30/05/24 418 392 392 37,91 20,53 0mb
Confinement 31/05/24 428 387 387 40,09 20,19 0mb
Confinement 01/06/24 421 400 400 39,17 20,5 0mb
Confinement 02/06/24 421 394 394 41,35 22,1 0mb
Confinement 03/06/24 429 400 400 40,76 23,9 0mb
Confinement 04/06/24 428 396 396 50,55 20,75 0mb
Confinement 05/06/24 401 395 395 70,77 15,86 0mb
Confinement 06/06/24 400 396 396 81,73 11,51 0mb
Confinement 07/06/24 406 397 397 66,32 13,03 0mb
Confinement 08/06/24 414 405 405 55,41 16,14 0mb
Confinement 09/06/24 442 409 409 60,86 16,98 0mb
Confinement 10/06/24 423 408 408 67,27 16,66 0mb
Confinement 11/06/24 438 426 426 70,77 16,97 0mb
Confinement 12/06/24 443 428 428 72,18 18,4 0mb
Confinement 13/06/24 447 415 415 67,41 19,65 0mb
Confinement 14/06/24 435 431 431 67,91 22,23 0mb
Confinement 15/06/24 440 417 417 62,82 21,56 0mb
Confinement 16/06/24 457 432 432 57,19 23,45 0mb
17/06/24 473 419 419 66,18 20,9 0mb
18/06/24 462 425 425 78,36 19,15 0mb
19/06/24 428 417 417 71,64 20,12 0mb
20/06/24 476 431 431 64,45 19,85 0mb
21/06/24 471 437 437 56,41 21,73 0mb
22/06/24 458 416 416 55,95 21,37 0mb
23/06/24 420 418 418 65,8 19,7 0mb
24/06/24 472 450 450 54 23,86 0mb
25/06/24 484 448 448 47,05 26,55 0mb
26/06/24 449 400 400 47,64 25,9 0mb
27/06/24 426 410 410 56,95 25,86 0mb
28/06/24 442 367 367 66,27 22,91 0mb
29/06/24 412 403 403 69,05 19,34 0mb
30/06/24 424 407 407 63,77 17,88 0mb
01/07/24 437 403 403 63,09 18,01 0mb
Tourisme 02/07/24 407 397 397 72,59 20,68 0mb
Tourisme 03/07/24 429 414 414 77,64 18,13 0mb
Tourisme 04/07/24 437 405 405 66,82 17,71 0mb
Tourisme 05/07/24 461 403 403 69,09 18,5 0mb
Tourisme 06/07/24 414 405 405 74,23 21,24 0mb
Tourisme 07/07/24 414 412 412 59,09 17,45 0mb 2,16 7,7
Tourisme 08/07/24 448 416 416 55,18 18,34 0mb 1,72 5,55
Tourisme 09/07/24 409 404 404 76,41 17,12 0mb 1,69 4,57
Tourisme 10/07/24 424 432 432 70,45 22,42 0mb 2,34 5,26
Tourisme 11/07/24 416 405 405 68,18 19,91 0mb 1,91 4,3
Tourisme 12/07/24 445 424 424 58,36 18,61 0mb 2,42 5,14
Tourisme 13/07/24 452 427 427 54,4 20,5 0mb 3,07 5,42
Tourisme 14/07/24 450 442 442 47,86 22,65 0mb 1,94 3,73
Tourisme 15/07/24 445 408 408 63,82 18,05 0mb 3,21 6,7
Tourisme 16/07/24 417 414 414 65,95 19,8 0mb 7,18 10,2
Tourisme 17/07/24 430 432 432 78,77 17,6 0mb 4,56 6,76
Tourisme 18/07/24 443 444 444 75,73 19,94 0mb 6,17 9,54
Tourisme 19/07/24 492 444 444 61,27 23,91 0mb 3,72 7,07
Tourisme 20/07/24 483 434 434 52,09 24,68 0mb 3,96 7,9
Tourisme 21/07/24 425 424 424 60,95 20,83 0mb 4,32 7,56
Tourisme 22/07/24 446 394 394 52,78 19,44 0mb 1,82 5,17
Tourisme 23/07/24 428 394 394 47,77 21,67 0mb 2,22 5,2
Tourisme 24/07/24 435 409 409 45,5 22,83 0mb
Tourisme 25/07/24 427 407 407 55 22,53 0mb 3,63 8,28
Tourisme 26/07/24 425 414 414 58,59 22,45 0mb 2,59 4,57
Tourisme 27/07/24 400 416 416 71,45 20,65 0mb 1,69 4,6
Tourisme 28/07/24 451 415 415 51,85 22,76 0mb 2,94 6,44
Tourisme 29/07/24 399 414 414 54 22,27 0mb 1,5 5,88
Tourisme 30/07/24 428 432 432 55,73 20,26 0mb 3,11 8,98
Tourisme 31/07/24 445 453 453 45,95 25,28 0mb 2,37 5,77
Tourisme 01/08/24 449 428 428 40,14 29,37 0mb 2,58 5,71
Tourisme 02/08/24 437 452 452 51,82 28,64 0mb 2,21 5,2
Tourisme 03/08/24 409 401 401 56,73 23,38 0mb 1,73 4,32
Tourisme 04/08/24 423 403 403 56,13 20,65 0mb 2,37 5,56
Tourisme 05/08/24 403 408 408 49,23 22,68 0mb 5,54 10,49
Tourisme 06/08/24 429 410 410 42,59 24,01 0mb 1,61 4,89
Tourisme 07/08/24 430 404 404 40,77 27,08 0mb 3,13 7,58
Tourisme 08/08/24 456 460 460 45,64 28,05 0mb 1,59 4,34
Tourisme 09/08/24 457 453 453 42,55 30,51 0mb 4,79 12,46
Tourisme 10/08/24 464 407 407 46,99 29,07 0mb 6,67 10,91
Tourisme 11/08/24 446 414 414 48,41 30,61 0mb 7,49 11,4
Tourisme 12/08/24 435 440 440 58,73 28,79 0mb 11,62 15,99
Tourisme 13/08/24 455 412 412 56,82 29,05 0mb 8,32 11,63
Tourisme 14/08/24 459 427 427 66,73 26,08 0mb 2,13 3,91
Tourisme 15/08/24 465 411 411 61,14 25,15 0mb 2,99 5,51
Tourisme 16/08/24 465 432 432 64,73 24,7 0mb 7,65 10,38
Tourisme 17/08/24 471 434 434 59,68 25,91 0mb 7,32 11,55
Tourisme 18/08/24 459 400 400 59,13 23,5 0mb 1,85 3,78
Tourisme 19/08/24 414 411 411 65,73 21,36 0mb 1,8 5,9
Tourisme 20/08/24 454 430 430 71,41 21,38 0mb 1,33 5,49
Tourisme 21/08/24 420 413 413 65,14 26,08 0mb 1,56 3,37
Tourisme 22/08/24 450 404 404 64,55 25,75 0mb 1,44 3,69
Tourisme 23/08/24 416 400 400 56,77 23,09 0mb 1,48 5,83
Tourisme 24/08/24 410 388 388 69,55 19,26 0mb 1,5 6,35
Tourisme 25/08/24 409 394 394 71,17 18,16 0mb 1,34 5,47
Tourisme 26/08/24 431 394 394 66,91 19,63 0mb 1,54 4,69
Tourisme 27/08/24 397 390 390 59,64 19,64 0mb 1,74 9,19
Tourisme 28/08/24 426 409 409 60,59 18,58 0mb 1,98 7,72
Tourisme 29/08/24 400 402 402 70,95 18,6 0mb 1,53 6,62
Tourisme 30/08/24 439 421 421 74,68 15,35 0mb 2,24 4,71
Tourisme 31/08/24 431 413 413 68,5 17,63 0mb 3,81 8,02
Tourisme 01/09/24 407 441 441 83,86 15,65 0mb 1,6 4,22
02/09/24 451 437 437 77,89 16,12 0mb 5,82 13,54
03/09/24 464 430 430 67,14 18,71 0mb 5,1 9,73
04/09/24 449 414 414 71,64 17,44 0mb 4,9 8,11
05/09/24 427 450 450 69,18 22,77 0mb 3,26 6
06/09/24 423 424 424 63,95 19,06 0mb 6,27 16,61
07/09/24 435 426 426 57,32 17,24 0mb 2,5 8,1
08/09/24 440 452 452 54,77 17,9 0mb 1,81 5,16
09/09/24 440 430 430 59,29 19,2 0mb 1,72 5,36
10/09/24 440 448 448 63,32 21,6 0mb 3,87 8,15
11/09/24 413 405 405 51,41 23,78 0mb 2,1 7,13
12/09/24 441 407 407 55,45 19,9 0mb 2,3 6,12
13/09/24 454 447 447 57,95 19,37 0mb 4,11 8,65
14/09/24 448 418 418 55,59 19,96 0mb
15/09/24 460 433 433 52,59 22,94 0mb
16/09/24 465 430 430 48,14 25,75 0mb 2,99 8,36
17/09/24 467 455 455 52,23 26,8 0mb 6,75 11,33
18/09/24 413 412 412 50,77 22,4 0mb 7,28 17,71
19/09/24 402 410 410 50,64 19,17 0mb 4 9,46
20/09/24 410 406 406 47,32 23,12 0mb 5,06 11,58
21/09/24 430 412 412 44,68 24,49 0mb 3,04 7,87
22/09/24 437 431 431 48,41 19,24 0mb 3,09 9,29
23/09/24 441 422 422 49,27 18,71 0mb 3,61 9,87
24/09/24 433 417 417 54,27 17,63 0mb 3,23 6,84
25/09/24 392 392 392 66,27 16,72 0mb 1,17 4,45
26/09/24 389 385 385 80,95 12,09 0mb 1,46 5,5
27/09/24 391 388 388 86,55 11,23 0mb 0,41 1,33
28/09/24 402 407 407 86,45 14,12 0mb 0,26 0,55
29/09/24 436 415 415 87,25 12,04 0mb 0,21 0,23
30/09/24 419 425 425 86,91 16,04 0mb 0,65 1,48
01/10/24 473 446 446 85,64 17,37 0mb 0,53 0,8
02/10/24 414 408 408 85,59 14,68 0mb 0,57 0,87
03/10/24 421 400 400 84,32 13,4 0mb 0,33 0,34
04/10/24 416 395 395 87,36 13,1 0mb 0,16 0,31
05/10/24 402 214 214 85,73 11,87 0mb 0,23 0,24
06/10/24 405 407 387 87,77 12,09 998mb 8.5mm 0,73 0,38
07/10/24 407 408 390 90,95 12,89 1000mb 20.5mm 0,76 0,41
08/10/24 413 416 398 86,55 12,78 1013mb 0.5mm 0,97 0,44
09/10/24 437 414 397 89,59 13,76 1015mb 31.0mm 0,25 0,25
10/10/24 431 422 401 89,95 14,4 1017mb 0.5mm 0,37 0,29
11/10/24 421 416 397 79,88 11,37 1021mb 4.5mm 0,26 0,24
12/10/24 424 417 399 81,91 11,53 1019mb 2.0mm 0,5 0,34
13/10/24 426 405 400 84,77 11,66 1017mb 3.0mm 0,68 0,47
14/10/24 444 414 396 82,18 10,14 1009mb 1,14 0,29
15/10/24 444 424 400 82,14 8,84 1016mb 0,52 0,46
16/10/24 416 420 396 81,86 10,14 1019mb 1,72 0,77
17/10/24 426 429 410 83,32 10,21 1020mb 1,61 0,93
18/10/24 434 417 80,45 10,77 1019mb 1,1 0,69
19/10/24 453 434 413 80,45 10,41 1021mb 1,11 0,83
20/10/24 452 398 396 78,41 11,19 1017mb 0,51 0,43
21/10/24 411 397 78,23 12,5 1009mb 4.0mm 0 0
22/10/24 411 394 396 78,77 16,24 1002mb
23/10/24 413 397 416 76,41 17,95 1011mb 3.0mm
24/10/24 450 416 85,77 15,92 1010mb 10.5mm
25/10/24 418 392 87,32 13,36 1008mb 0.3mm
26/10/24 400 393 86,17 13,23 1002mb 10.3mm
27/10/24 397 390 84,77 11,03 1001mb 10.3mm
28/10/24 395 381 83,41 10,31 1003mb 1.0mm
29/10/24 406 390 87,38 12,24 1008mb 1.0mm

Partageons !

Laisser un commentaire

Votre adresse de messagerie ne sera pas publiée. Les champs obligatoires sont indiqués avec *

× two = four